Time,TemperatureF,DewpointF,PressureIn,WindDirection,WindDirectionDegrees,WindSpeedMPH,WindSpeedGustMPH,Humidity,HourlyPrecipIn,Conditions,Clouds,dailyrainin,SoftwareType,DateUTC
2013-09-07 00:24:00,48.0,48.0,30.08,SE,134,0.0,0.0,100,0.00,,,0.00,,2013-09-07 04:24:00,
2013-09-07 00:54:00,47.0,47.0,30.08,SE,133,0.0,0.0,100,0.00,,,0.00,,2013-09-07 04:54:00,
2013-09-07 01:23:00,47.0,47.0,30.08,SE,133,0.0,0.0,100,0.00,,,0.00,,2013-09-07 05:23:00,
2013-09-07 01:52:00,47.0,47.0,30.06,SE,133,0.0,0.0,100,0.00,,,0.00,,2013-09-07 05:52:00,
2013-09-07 02:22:00,46.0,46.0,30.06,SE,133,0.0,0.0,100,0.00,,,0.00,,2013-09-07 06:22:00,
2013-09-07 02:52:00,45.0,45.0,30.06,SE,133,0.0,0.0,100,0.00,,,0.00,,2013-09-07 06:52:00,
2013-09-07 03:12:00,45.0,45.0,30.06,SE,133,0.0,0.0,100,0.00,,,0.00,,2013-09-07 07:12:00,
2013-09-07 03:22:00,45.0,45.0,30.05,SE,133,0.0,0.0,100,0.00,,,0.00,,2013-09-07 07:22:00,
2013-09-07 03:52:00,45.0,45.0,30.06,SE,131,0.0,0.0,100,0.00,,,0.00,,2013-09-07 07:52:00,
2013-09-07 04:22:00,44.0,44.0,30.06,SE,128,0.0,0.0,100,0.00,,,0.00,,2013-09-07 08:22:00,
2013-09-07 04:53:00,44.0,44.0,30.05,ESE,110,0.0,0.0,100,0.00,,,0.00,,2013-09-07 08:53:00,
2013-09-07 05:21:00,44.0,44.0,30.05,SE,133,0.0,0.0,100,0.00,,,0.00,,2013-09-07 09:21:00,
2013-09-07 05:52:00,43.0,43.0,30.05,SE,133,0.0,0.0,100,0.00,,,0.00,,2013-09-07 09:52:00,
2013-09-07 06:21:00,43.0,43.0,30.05,SE,133,0.0,0.0,100,0.00,,,0.00,,2013-09-07 10:21:00,
2013-09-07 06:52:00,44.0,44.0,30.05,SE,133,0.0,0.0,100,0.00,,,0.00,,2013-09-07 10:52:00,
2013-09-07 07:23:00,45.0,45.0,30.05,SE,133,0.0,0.0,100,0.00,,,0.00,,2013-09-07 11:23:00,
2013-09-07 07:53:00,45.0,45.0,30.05,SE,133,0.0,0.0,100,0.00,,,0.00,,2013-09-07 11:53:00,
2013-09-07 08:22:00,46.0,46.0,30.04,ENE,75,0.0,0.0,100,0.00,,,0.00,,2013-09-07 12:22:00,
2013-09-07 08:52:00,48.0,48.0,30.03,ESE,114,0.0,0.0,100,0.00,,,0.00,,2013-09-07 12:52:00,
2013-09-07 09:21:00,51.0,51.0,30.02,SE,134,0.0,0.0,100,0.00,,,0.00,,2013-09-07 13:21:00,
2013-09-07 09:52:00,54.0,53.0,30.01,SW,224,0.0,0.0,97,0.00,,,0.00,,2013-09-07 13:52:00,
2013-09-07 10:22:00,57.0,54.0,30.01,WSW,250,0.0,1.0,89,0.00,,,0.00,,2013-09-07 14:22:00,
2013-09-07 10:52:00,60.0,55.0,30.00,ENE,61,0.0,1.0,84,0.00,,,0.00,,2013-09-07 14:52:00,
2013-09-07 11:23:00,64.0,56.0,29.99,East,83,0.0,1.0,76,0.00,,,0.00,,2013-09-07 15:23:00,
2013-09-07 11:54:00,67.0,57.0,29.98,SW,222,0.0,1.0,71,0.00,,,0.00,,2013-09-07 15:54:00,
2013-09-07 12:24:00,69.0,58.0,29.98,WSW,239,0.0,0.0,69,0.00,,,0.00,,2013-09-07 16:24:00,
2013-09-07 12:53:00,71.0,59.0,29.95,WSW,237,0.0,1.0,66,0.00,,,0.00,,2013-09-07 16:53:00,
2013-09-07 13:24:00,73.0,60.0,29.93,WNW,299,0.0,1.0,63,0.00,,,0.00,,2013-09-07 17:24:00,
2013-09-07 14:52:00,75.0,62.0,29.90,WSW,256,0.0,1.0,65,0.00,,,0.00,,2013-09-07 18:52:00,
2013-09-07 15:22:00,75.0,63.0,29.89,WSW,244,0.0,1.0,66,0.00,,,0.00,,2013-09-07 19:22:00,
2013-09-07 15:52:00,75.0,62.0,29.89,SSE,147,0.0,0.0,64,0.00,,,0.00,,2013-09-07 19:52:00,
2013-09-07 16:22:00,74.0,64.0,29.89,NNE,27,0.0,0.0,71,0.00,,,0.00,,2013-09-07 20:22:00,
2013-09-07 16:53:00,73.0,63.0,29.89,NNE,25,0.0,0.0,72,0.00,,,0.00,,2013-09-07 20:53:00,
2013-09-07 17:22:00,72.0,65.0,29.88,NNE,23,0.0,0.0,78,0.00,,,0.00,,2013-09-07 21:22:00,
2013-09-07 17:54:00,72.0,66.0,29.89,NNE,27,0.0,0.0,81,0.00,,,0.00,,2013-09-07 21:54:00,
2013-09-07 18:24:00,70.0,58.0,29.89,SW,229,0.0,1.0,66,0.00,,,0.00,,2013-09-07 22:24:00,
2013-09-07 18:53:00,68.0,57.0,29.89,SW,232,0.0,0.0,67,0.00,,,0.00,,2013-09-07 22:53:00,
2013-09-07 19:23:00,66.0,60.0,29.88,SW,232,0.0,0.0,80,0.00,,,0.00,,2013-09-07 23:23:00,
2013-09-07 19:53:00,64.0,60.0,29.88,SW,222,0.0,0.0,88,0.00,,,0.00,,2013-09-07 23:53:00,
2013-09-07 20:22:00,62.0,61.0,29.88,SSW,212,0.0,0.0,95,0.00,,,0.00,,2013-09-08 00:22:00,
2013-09-07 20:52:00,61.0,61.0,29.88,SSW,209,0.0,0.0,99,0.00,,,0.00,,2013-09-08 00:52:00,
2013-09-07 21:22:00,60.0,60.0,29.88,SSW,213,0.0,0.0,100,0.00,,,0.00,,2013-09-08 01:22:00,
2013-09-07 21:52:00,60.0,60.0,29.88,SW,215,0.0,0.0,100,0.00,,,0.00,,2013-09-08 01:52:00,
2013-09-07 22:23:00,60.0,60.0,29.88,SW,220,0.0,0.0,100,0.00,,,0.00,,2013-09-08 02:23:00,
2013-09-07 22:52:00,60.0,60.0,29.87,SW,219,0.0,0.0,100,0.01,,,0.01,,2013-09-08 02:52:00,
2013-09-07 23:23:00,60.0,60.0,29.86,SW,220,0.0,0.0,100,0.01,,,0.01,,2013-09-08 03:23:00,
2013-09-07 23:54:00,60.0,60.0,29.85,SW,220,0.0,0.0,100,0.00,,,0.01,,2013-09-08 03:54:00,